createdAt,value
2023-03-29T00:02:03.122Z,82.11
2023-03-29T00:04:29.851Z,81.74
2023-03-29T00:06:58.146Z,81.57
2023-03-29T00:09:24.788Z,81.36
2023-03-29T00:11:51.319Z,80.99
2023-03-29T00:14:17.969Z,80.27
2023-03-29T00:16:44.583Z,81.49
2023-03-29T00:19:11.274Z,80.99
2023-03-29T00:21:37.858Z,81.61
2023-03-29T00:24:06.330Z,81.28
2023-03-29T00:26:32.903Z,81.00
2023-03-29T00:28:59.693Z,81.12
2023-03-29T00:31:26.358Z,81.77
2023-03-29T00:33:53.129Z,80.17
2023-03-29T00:36:19.696Z,80.61
2023-03-29T00:38:46.364Z,80.70
2023-03-29T00:41:14.709Z,80.52
2023-03-29T00:43:58.868Z,80.79
2023-03-29T00:46:27.257Z,80.55
2023-03-29T00:48:57.837Z,79.90
2023-03-29T00:51:29.818Z,80.37
2023-03-29T00:53:58.520Z,80.31
2023-03-29T00:56:29.735Z,81.48
2023-03-29T00:59:00.570Z,81.20
2023-03-29T01:01:31.966Z,81.50
2023-03-29T01:04:03.476Z,82.02
2023-03-29T01:06:34.356Z,82.22
2023-03-29T01:09:04.205Z,82.75
2023-03-29T01:11:37.718Z,82.73
2023-03-29T01:14:05.315Z,83.22
2023-03-29T01:16:35.119Z,83.96
2023-03-29T01:19:01.907Z,84.21
2023-03-29T01:21:32.973Z,84.08
2023-03-29T01:24:20.468Z,83.74
2023-03-29T01:26:55.370Z,84.60
2023-03-29T01:29:27.642Z,84.15
2023-03-29T01:31:58.151Z,84.96
2023-03-29T01:34:33.052Z,84.00
2023-03-29T01:37:05.611Z,83.83
2023-03-29T01:39:32.414Z,84.19
2023-03-29T01:42:14.156Z,83.90
2023-03-29T01:44:48.610Z,81.19
2023-03-29T01:47:25.957Z,82.01
2023-03-29T01:50:00.671Z,83.28
2023-03-29T01:52:34.493Z,82.94
2023-03-29T01:55:06.880Z,84.37
2023-03-29T01:57:36.950Z,84.05
2023-03-29T02:00:06.533Z,83.68
2023-03-29T02:02:40.739Z,82.54
2023-03-29T02:05:09.509Z,82.59
2023-03-29T02:07:38.560Z,82.81
2023-03-29T02:10:08.104Z,82.77
2023-03-29T02:12:36.847Z,82.94
2023-03-29T02:15:10.275Z,84.26
2023-03-29T02:17:36.949Z,83.96
2023-03-29T02:20:08.410Z,84.72
2023-03-29T02:22:41.224Z,83.43
2023-03-29T02:25:08.792Z,83.44
2023-03-29T02:27:37.329Z,84.14
2023-03-29T02:30:06.821Z,83.56
2023-03-29T02:32:39.927Z,83.54
2023-03-29T02:35:10.740Z,83.51
2023-03-29T02:37:38.258Z,83.73
2023-03-29T02:40:05.731Z,84.06
2023-03-29T02:42:32.586Z,83.91
2023-03-29T02:45:00.914Z,83.72
2023-03-29T02:47:32.976Z,83.24
2023-03-29T02:50:00.339Z,84.08
2023-03-29T02:52:33.911Z,83.95
2023-03-29T02:55:02.177Z,82.95
2023-03-29T02:57:30.137Z,82.32
2023-03-29T02:59:59.054Z,82.40
2023-03-29T03:02:25.962Z,82.57
2023-03-29T03:04:55.332Z,83.16
2023-03-29T03:07:22.074Z,82.99
2023-03-29T03:09:49.083Z,83.51
2023-03-29T03:12:15.881Z,84.31
2023-03-29T03:14:42.846Z,84.74
2023-03-29T03:17:09.583Z,84.33
2023-03-29T03:19:36.191Z,85.05
2023-03-29T03:22:05.039Z,85.50
2023-03-29T03:24:31.685Z,85.54
2023-03-29T03:26:58.612Z,85.68
2023-03-29T03:29:25.956Z,85.49
2023-03-29T03:31:58.587Z,85.52
2023-03-29T03:34:51.045Z,85.86
2023-03-29T03:37:18.998Z,85.73
2023-03-29T03:39:45.887Z,86.44
2023-03-29T03:42:12.575Z,86.00
2023-03-29T03:44:42.410Z,86.30
2023-03-29T03:47:24.768Z,86.17
2023-03-29T03:49:53.407Z,86.12
2023-03-29T03:52:25.217Z,86.55
2023-03-29T03:54:52.849Z,86.70
2023-03-29T03:57:41.747Z,86.21
2023-03-29T04:00:13.732Z,86.09
2023-03-29T04:02:41.655Z,86.49
2023-03-29T04:05:08.577Z,86.02
2023-03-29T04:07:40.639Z,86.33
2023-03-29T04:10:27.600Z,86.23
2023-03-29T04:13:17.323Z,86.42
2023-03-29T04:16:02.848Z,85.48
2023-03-29T04:18:30.826Z,86.13
2023-03-29T04:20:59.213Z,85.33
2023-03-29T04:23:29.201Z,85.47
2023-03-29T04:25:56.177Z,86.00
2023-03-29T04:28:45.994Z,85.76
2023-03-29T04:31:17.344Z,85.60
2023-03-29T04:34:02.856Z,85.79
2023-03-29T04:36:29.953Z,85.89
2023-03-29T04:38:58.381Z,86.18
2023-03-29T04:41:26.604Z,86.43
2023-03-29T04:44:03.521Z,85.66
2023-03-29T04:46:31.525Z,86.03
2023-03-29T04:49:27.976Z,86.66
2023-03-29T04:51:55.092Z,85.89
2023-03-29T04:54:27.564Z,86.20
2023-03-29T04:57:20.271Z,85.81
2023-03-29T05:00:01.944Z,85.83
2023-03-29T05:02:48.546Z,86.29
2023-03-29T05:05:15.717Z,86.12
2023-03-29T05:07:44.057Z,85.39
2023-03-29T05:10:12.713Z,85.62
2023-03-29T05:12:39.540Z,85.66
2023-03-29T05:15:07.706Z,85.48
2023-03-29T05:17:34.571Z,86.22
2023-03-29T05:20:08.696Z,85.43
2023-03-29T05:22:35.673Z,85.88
2023-03-29T05:25:02.274Z,85.40
2023-03-29T05:27:31.069Z,85.50
2023-03-29T05:30:08.475Z,85.49
2023-03-29T05:32:55.373Z,85.90
2023-03-29T05:35:24.766Z,86.07
2023-03-29T05:37:52.249Z,85.54
2023-03-29T05:40:19.208Z,85.87
2023-03-29T05:43:16.697Z,86.05
2023-03-29T05:45:43.594Z,85.40
2023-03-29T05:48:10.423Z,85.56
2023-03-29T05:50:40.584Z,85.51
2023-03-29T05:53:07.338Z,86.07
2023-03-29T05:55:33.980Z,85.49
2023-03-29T05:58:00.573Z,85.53
2023-03-29T06:00:32.216Z,85.29
2023-03-29T06:05:48.378Z,84.86
2023-03-29T06:08:16.642Z,83.80
2023-03-29T06:10:58.002Z,81.18
2023-03-29T06:13:47.229Z,81.02
2023-03-29T06:16:15.255Z,81.26
2023-03-29T06:18:42.038Z,79.71
2023-03-29T06:21:08.776Z,79.99
2023-03-29T06:23:35.592Z,78.61
2023-03-29T06:26:02.499Z,78.05
2023-03-29T06:28:29.388Z,78.87
2023-03-29T06:30:56.880Z,79.20
2023-03-29T06:33:28.094Z,79.85
2023-03-29T06:36:04.300Z,79.59
2023-03-29T06:38:31.254Z,79.25
2023-03-29T06:41:09.519Z,78.22
2023-03-29T06:43:51.687Z,78.78
2023-03-29T06:46:23.719Z,78.86
2023-03-29T06:48:56.925Z,79.23
2023-03-29T06:51:31.603Z,79.13
2023-03-29T06:53:58.682Z,79.40
2023-03-29T06:56:25.484Z,79.65
2023-03-29T06:59:08.895Z,76.13
2023-03-29T07:01:43.563Z,75.33
2023-03-29T07:04:24.718Z,75.88
2023-03-29T07:07:14.880Z,73.64
2023-03-29T07:09:41.486Z,73.77
2023-03-29T07:12:42.898Z,72.76
2023-03-29T07:15:10.207Z,72.81
2023-03-29T07:17:55.670Z,73.30
2023-03-29T07:20:24.013Z,73.06
2023-03-29T07:23:01.952Z,72.38
2023-03-29T07:25:28.584Z,72.21
2023-03-29T07:27:55.140Z,71.14
2023-03-29T07:30:23.830Z,71.38
2023-03-29T07:32:51.467Z,70.50
2023-03-29T07:35:31.987Z,71.32
2023-03-29T07:37:58.834Z,71.09
2023-03-29T07:40:26.681Z,70.07
2023-03-29T07:42:57.188Z,70.38
2023-03-29T07:45:28.373Z,70.59
2023-03-29T07:48:02.494Z,71.53
2023-03-29T07:50:46.744Z,71.64
2023-03-29T07:53:14.144Z,71.35
2023-03-29T07:55:41.133Z,70.96
2023-03-29T07:58:30.974Z,71.02
2023-03-29T08:00:59.081Z,70.67
2023-03-29T08:03:44.041Z,70.35
2023-03-29T08:06:12.694Z,71.20
2023-03-29T08:08:39.323Z,71.40
2023-03-29T08:11:11.036Z,71.38
2023-03-29T08:13:55.355Z,69.25
2023-03-29T08:16:33.727Z,69.89
2023-03-29T08:19:11.332Z,70.31
2023-03-29T08:21:58.370Z,69.53
2023-03-29T08:24:29.137Z,68.19
2023-03-29T08:27:00.389Z,68.53
2023-03-29T08:29:27.148Z,68.61
2023-03-29T08:31:57.066Z,69.40
2023-03-29T08:34:24.093Z,69.24
2023-03-29T08:37:27.467Z,67.92
2023-03-29T08:39:56.350Z,67.65
2023-03-29T08:43:00.963Z,67.85
2023-03-29T08:45:41.380Z,66.96
2023-03-29T08:48:22.079Z,66.95
2023-03-29T08:50:52.824Z,66.32
2023-03-29T08:53:27.539Z,67.15
2023-03-29T08:56:15.650Z,67.81
2023-03-29T08:58:43.274Z,67.56
2023-03-29T09:01:10.054Z,66.92
2023-03-29T09:04:00.297Z,65.57
2023-03-29T09:06:40.803Z,66.53
2023-03-29T09:09:31.825Z,64.89
2023-03-29T09:12:12.280Z,65.56
2023-03-29T09:14:59.389Z,66.54
2023-03-29T09:17:39.010Z,67.20
2023-03-29T09:20:21.539Z,65.15
2023-03-29T09:22:55.458Z,65.40
2023-03-29T09:25:36.232Z,65.57
2023-03-29T09:28:17.323Z,64.31
2023-03-29T09:30:57.444Z,65.50
2023-03-29T09:33:26.492Z,65.32
2023-03-29T09:36:17.995Z,65.37
2023-03-29T09:38:49.064Z,65.81
2023-03-29T09:41:22.861Z,66.40
2023-03-29T09:43:51.704Z,64.15
2023-03-29T09:46:26.696Z,64.86
2023-03-29T09:48:55.522Z,64.98
2023-03-29T09:51:26.656Z,65.23
2023-03-29T09:53:55.131Z,64.55
2023-03-29T09:56:37.010Z,64.10
2023-03-29T09:59:13.542Z,63.78
2023-03-29T10:01:42.759Z,63.25
2023-03-29T10:04:11.225Z,63.33
2023-03-29T10:06:44.253Z,62.86
2023-03-29T10:09:16.090Z,62.68
2023-03-29T10:11:51.377Z,62.22
2023-03-29T10:14:19.904Z,61.77
2023-03-29T10:16:47.157Z,62.55
2023-03-29T10:19:22.554Z,62.44
2023-03-29T10:21:49.393Z,61.00
2023-03-29T10:24:19.676Z,61.71
2023-03-29T10:26:49.594Z,61.87
2023-03-29T10:29:16.288Z,62.21
2023-03-29T10:31:43.236Z,62.12
2023-03-29T10:34:13.847Z,61.66
2023-03-29T10:36:41.997Z,61.58
2023-03-29T10:39:13.145Z,61.68
2023-03-29T10:41:40.077Z,60.46
2023-03-29T10:44:26.125Z,61.58
2023-03-29T10:46:52.808Z,60.08
2023-03-29T10:49:22.061Z,60.58
2023-03-29T10:51:50.173Z,60.45
2023-03-29T10:54:20.071Z,59.63
2023-03-29T10:56:52.545Z,60.21
2023-03-29T10:59:32.509Z,60.22
2023-03-29T11:02:28.356Z,58.74
2023-03-29T11:05:05.748Z,58.84
2023-03-29T11:07:34.301Z,59.51
2023-03-29T11:10:23.025Z,59.90
2023-03-29T11:12:56.366Z,57.88
2023-03-29T11:15:38.493Z,58.12
2023-03-29T11:18:23.470Z,58.09
2023-03-29T11:20:55.744Z,58.17
2023-03-29T11:23:34.420Z,58.86
2023-03-29T11:26:10.727Z,57.62
2023-03-29T11:28:44.873Z,58.50
2023-03-29T11:31:24.491Z,56.37
2023-03-29T11:34:01.832Z,57.20
2023-03-29T11:36:37.563Z,57.41
2023-03-29T11:39:15.690Z,57.45
2023-03-29T11:41:44.813Z,56.24
2023-03-29T11:44:17.037Z,55.61
2023-03-29T11:46:49.798Z,56.04
2023-03-29T11:49:19.185Z,55.72
2023-03-29T11:51:53.365Z,56.04
2023-03-29T11:54:25.315Z,57.09
2023-03-29T11:56:57.133Z,55.26
2023-03-29T11:59:30.026Z,54.33
2023-03-29T12:02:05.124Z,54.95
2023-03-29T12:04:37.797Z,53.70
2023-03-29T12:07:12.054Z,54.82
2023-03-29T12:09:43.096Z,54.17
2023-03-29T12:12:14.915Z,54.03
2023-03-29T12:14:59.514Z,53.72
2023-03-29T12:17:32.199Z,51.53
2023-03-29T12:20:11.928Z,54.90
2023-03-29T12:22:45.318Z,53.40
2023-03-29T12:25:18.220Z,52.04
2023-03-29T12:27:57.003Z,52.26
2023-03-29T12:30:44.433Z,51.25
2023-03-29T12:33:40.775Z,52.93
2023-03-29T12:37:02.140Z,52.27
2023-03-29T12:39:48.201Z,51.62
2023-03-29T12:42:45.961Z,51.50
2023-03-29T12:45:55.051Z,50.71
2023-03-29T12:48:24.584Z,50.19
2023-03-29T12:50:54.378Z,49.27
2023-03-29T12:53:24.141Z,49.60
2023-03-29T12:56:16.246Z,50.02
2023-03-29T12:58:53.231Z,49.56
2023-03-29T13:01:29.205Z,50.86
2023-03-29T13:04:12.391Z,50.99
2023-03-29T13:06:56.190Z,50.51
2023-03-29T13:09:24.280Z,51.13
2023-03-29T13:11:53.595Z,51.47
2023-03-29T13:14:23.890Z,49.50
2023-03-29T13:16:50.666Z,50.84
2023-03-29T13:19:28.418Z,50.46
2023-03-29T13:22:08.044Z,50.26
2023-03-29T13:24:49.223Z,48.46
2023-03-29T13:27:27.362Z,49.49
2023-03-29T13:30:13.713Z,49.77
2023-03-29T13:32:50.532Z,49.46
2023-03-29T13:35:28.401Z,49.23
2023-03-29T13:38:05.131Z,49.32
2023-03-29T13:40:42.141Z,48.55
2023-03-29T13:43:10.810Z,49.26
2023-03-29T13:45:37.361Z,48.68
2023-03-29T13:48:06.400Z,48.78
2023-03-29T13:50:38.640Z,48.99
2023-03-29T13:53:13.040Z,48.62
2023-03-29T13:55:47.061Z,48.58
2023-03-29T13:58:24.964Z,48.06
2023-03-29T14:00:59.183Z,48.52
2023-03-29T14:03:26.743Z,49.36
2023-03-29T14:05:57.969Z,48.45
2023-03-29T14:08:30.034Z,48.68
2023-03-29T14:11:00.688Z,47.90
2023-03-29T14:13:29.122Z,50.03
2023-03-29T14:15:59.707Z,49.80
2023-03-29T14:18:28.960Z,50.17
2023-03-29T14:20:55.686Z,50.12
2023-03-29T14:23:24.535Z,49.57
2023-03-29T14:25:52.572Z,50.42
2023-03-29T14:28:20.489Z,49.88
2023-03-29T14:30:47.196Z,50.20
2023-03-29T14:33:14.183Z,49.20
2023-03-29T14:35:40.892Z,48.94
2023-03-29T14:38:12.467Z,48.83
2023-03-29T14:40:38.985Z,49.15
2023-03-29T14:43:08.083Z,49.66
2023-03-29T14:45:35.756Z,50.11
2023-03-29T14:48:02.792Z,49.25
2023-03-29T14:50:30.353Z,50.44
2023-03-29T14:52:57.864Z,50.94
2023-03-29T14:55:24.910Z,50.65
2023-03-29T14:57:54.278Z,50.31
2023-03-29T15:00:27.040Z,50.08
2023-03-29T15:02:55.915Z,49.80
2023-03-29T15:05:26.212Z,51.34
2023-03-29T15:07:53.750Z,50.35
2023-03-29T15:10:20.490Z,50.51
2023-03-29T15:12:48.497Z,50.21
2023-03-29T15:15:15.496Z,50.68
2023-03-29T15:17:51.107Z,50.62
2023-03-29T15:20:22.782Z,51.42
2023-03-29T15:22:55.753Z,51.57
2023-03-29T15:25:22.432Z,51.25
2023-03-29T15:27:53.745Z,51.98
2023-03-29T15:30:28.287Z,52.03
2023-03-29T15:32:56.653Z,51.70
2023-03-29T15:35:24.738Z,51.97
2023-03-29T15:37:53.176Z,51.48
2023-03-29T15:40:25.723Z,51.36
2023-03-29T15:42:53.921Z,52.46
2023-03-29T15:45:22.487Z,51.48
2023-03-29T15:47:49.143Z,52.03
2023-03-29T15:50:17.225Z,51.56
2023-03-29T15:52:43.798Z,52.37
2023-03-29T15:55:10.377Z,51.99
2023-03-29T15:57:37.208Z,52.20
2023-03-29T16:00:05.958Z,52.32
2023-03-29T16:02:39.407Z,52.17
2023-03-29T16:05:06.421Z,52.57
2023-03-29T16:07:34.442Z,52.83
2023-03-29T16:10:01.107Z,52.48
2023-03-29T16:12:27.638Z,52.56
2023-03-29T16:14:54.269Z,52.69
2023-03-29T16:17:20.790Z,52.85
2023-03-29T16:19:47.484Z,52.76
2023-03-29T16:22:14.055Z,53.10
2023-03-29T16:24:42.124Z,54.17
2023-03-29T16:27:09.016Z,54.35
2023-03-29T16:29:35.635Z,53.91
2023-03-29T16:32:03.445Z,54.72
2023-03-29T16:34:31.981Z,55.85
2023-03-29T16:36:58.498Z,55.72
2023-03-29T16:39:25.341Z,56.43
2023-03-29T16:41:53.229Z,57.11
2023-03-29T16:44:23.211Z,56.77
2023-03-29T16:46:51.210Z,56.92
2023-03-29T16:49:17.725Z,57.35
2023-03-29T16:51:45.515Z,57.66
2023-03-29T16:54:12.188Z,57.51
2023-03-29T16:56:38.913Z,57.92
2023-03-29T16:59:06.836Z,57.20
2023-03-29T17:01:33.512Z,57.63
2023-03-29T17:04:00.546Z,57.39
2023-03-29T17:06:27.305Z,57.67
2023-03-29T17:08:53.904Z,57.74
2023-03-29T17:11:20.490Z,57.91
2023-03-29T17:13:47.103Z,57.65
2023-03-29T17:16:15.323Z,57.95
2023-03-29T17:18:41.987Z,58.06
2023-03-29T17:21:08.699Z,58.11
2023-03-29T17:23:35.289Z,58.38
2023-03-29T17:26:02.143Z,58.95
2023-03-29T17:28:28.878Z,59.14
2023-03-29T17:30:55.560Z,59.44
2023-03-29T17:33:23.501Z,60.25
2023-03-29T17:35:50.142Z,61.24
2023-03-29T17:38:16.986Z,61.54
2023-03-29T17:40:43.541Z,61.91
2023-03-29T17:43:10.056Z,62.37
2023-03-29T17:45:36.669Z,62.62
2023-03-29T17:48:06.039Z,62.80
2023-03-29T17:50:34.424Z,63.35
2023-03-29T17:53:00.907Z,63.71
2023-03-29T17:55:27.486Z,63.83
2023-03-29T17:57:53.991Z,64.07
2023-03-29T18:00:21.281Z,65.39
2023-03-29T18:02:47.899Z,65.53
2023-03-29T18:05:14.567Z,66.40
2023-03-29T18:07:42.453Z,66.53
2023-03-29T18:10:09.929Z,66.84
2023-03-29T18:12:36.502Z,67.49
2023-03-29T18:15:03.622Z,67.26
2023-03-29T18:17:30.160Z,68.40
2023-03-29T18:19:57.058Z,68.67
2023-03-29T18:22:23.571Z,69.36
2023-03-29T18:24:51.532Z,69.88
2023-03-29T18:27:18.406Z,69.32
2023-03-29T18:29:45.055Z,69.66
2023-03-29T18:32:12.179Z,69.89
2023-03-29T18:34:38.824Z,70.96
2023-03-29T18:37:05.406Z,71.21
2023-03-29T18:39:32.016Z,71.42
2023-03-29T18:41:59.910Z,72.20
2023-03-29T18:44:26.509Z,71.88
2023-03-29T18:46:53.055Z,72.06
2023-03-29T18:49:19.921Z,72.59
2023-03-29T18:51:46.512Z,72.88
2023-03-29T18:54:13.127Z,72.96
2023-03-29T18:56:39.650Z,72.96
2023-03-29T18:59:07.645Z,73.37
2023-03-29T19:01:34.308Z,74.40
2023-03-29T19:04:00.996Z,75.07
2023-03-29T19:06:27.711Z,75.68
2023-03-29T19:08:54.348Z,76.11
2023-03-29T19:11:20.901Z,76.12
2023-03-29T19:13:47.492Z,76.40
2023-03-29T19:16:15.532Z,76.63
2023-03-29T19:18:42.343Z,76.91
2023-03-29T19:21:09.373Z,77.10
2023-03-29T19:23:35.971Z,77.58
2023-03-29T19:26:04.380Z,78.71
2023-03-29T19:28:31.350Z,78.32
2023-03-29T19:30:59.415Z,78.30
2023-03-29T19:33:27.896Z,78.75
2023-03-29T19:35:54.533Z,78.50
2023-03-29T19:38:21.566Z,79.29
2023-03-29T19:40:49.644Z,79.96
2023-03-29T19:43:16.284Z,80.38
2023-03-29T19:45:42.808Z,80.09
2023-03-29T19:50:41.318Z,80.85
2023-03-29T19:53:08.166Z,80.18
2023-03-29T19:55:35.224Z,80.78
2023-03-29T19:58:01.763Z,81.47
2023-03-29T20:00:28.525Z,81.73
2023-03-29T20:02:56.216Z,82.07
2023-03-29T20:05:23.222Z,82.27
2023-03-29T20:07:51.150Z,82.59
2023-03-29T20:10:18.031Z,82.79
2023-03-29T20:12:44.585Z,83.22
2023-03-29T20:15:11.488Z,83.24
2023-03-29T20:17:38.095Z,83.66
2023-03-29T20:20:05.886Z,83.59
2023-03-29T20:22:32.406Z,83.68
2023-03-29T20:25:00.305Z,84.27
2023-03-29T20:27:26.854Z,84.26
2023-03-29T20:29:53.370Z,84.22
2023-03-29T20:32:20.227Z,84.53
2023-03-29T20:34:46.825Z,84.83
2023-03-29T20:37:13.405Z,84.78
2023-03-29T20:39:40.244Z,85.35
2023-03-29T20:42:08.147Z,85.91
2023-03-29T20:44:35.482Z,86.15
2023-03-29T20:47:02.102Z,86.26
2023-03-29T20:49:29.180Z,86.54
2023-03-29T20:51:55.716Z,87.03
2023-03-29T20:54:22.236Z,86.69
2023-03-29T20:56:48.876Z,86.47
2023-03-29T20:59:17.086Z,86.50
2023-03-29T21:01:43.744Z,87.09
2023-03-29T21:04:10.374Z,87.38
2023-03-29T21:06:37.109Z,87.28
2023-03-29T21:09:03.907Z,87.42
2023-03-29T21:11:30.494Z,87.76
2023-03-29T21:13:57.034Z,87.31
2023-03-29T21:16:25.174Z,87.87
2023-03-29T21:18:52.913Z,87.77
2023-03-29T21:21:19.445Z,88.08
2023-03-29T21:23:45.964Z,88.65
2023-03-29T21:26:12.677Z,89.07
2023-03-29T21:28:39.364Z,89.21
2023-03-29T21:31:07.217Z,90.16
2023-03-29T21:33:35.988Z,89.69
2023-03-29T21:36:02.650Z,90.56
2023-03-29T21:38:29.249Z,90.94
2023-03-29T21:40:55.784Z,90.69
2023-03-29T21:43:22.318Z,90.63
2023-03-29T21:45:49.310Z,90.60
2023-03-29T21:48:15.909Z,91.00
2023-03-29T21:50:43.809Z,91.46
2023-03-29T21:53:10.432Z,91.34
2023-03-29T21:55:37.137Z,91.23
2023-03-29T21:58:03.677Z,91.26
2023-03-29T22:00:30.308Z,91.17
2023-03-29T22:02:57.160Z,91.11
2023-03-29T22:05:23.785Z,91.70
2023-03-29T22:07:51.692Z,91.74
2023-03-29T22:10:19.999Z,91.97
2023-03-29T22:12:46.564Z,92.41
2023-03-29T22:15:13.162Z,92.64
2023-03-29T22:17:39.891Z,92.81
2023-03-29T22:20:07.237Z,92.48
2023-03-29T22:22:33.981Z,93.44
2023-03-29T22:25:01.884Z,93.32
2023-03-29T22:27:28.400Z,93.18
2023-03-29T22:29:54.921Z,93.12
2023-03-29T22:32:21.556Z,93.20
2023-03-29T22:34:48.086Z,93.17
2023-03-29T22:37:14.609Z,93.42
2023-03-29T22:39:41.230Z,92.46
2023-03-29T22:42:09.130Z,92.50
2023-03-29T22:44:35.831Z,93.14
2023-03-29T22:47:02.380Z,93.24
2023-03-29T22:49:28.897Z,93.58
2023-03-29T22:51:55.616Z,94.03
2023-03-29T22:54:22.166Z,94.22
2023-03-29T22:56:48.815Z,94.12
2023-03-29T22:59:16.751Z,94.50
2023-03-29T23:01:43.531Z,94.86
2023-03-29T23:04:10.403Z,95.82
2023-03-29T23:06:37.236Z,96.72
2023-03-29T23:09:04.212Z,96.97
2023-03-29T23:11:30.927Z,97.30
2023-03-29T23:13:57.453Z,97.17
2023-03-29T23:16:25.490Z,96.82
2023-03-29T23:18:52.209Z,96.87
2023-03-29T23:21:19.213Z,97.18
2023-03-29T23:23:45.762Z,97.18
2023-03-29T23:26:12.311Z,97.31
2023-03-29T23:28:38.869Z,97.31
2023-03-29T23:31:07.664Z,97.50
2023-03-29T23:33:37.460Z,97.50
2023-03-29T23:36:05.993Z,97.49
2023-03-29T23:38:35.158Z,98.11
2023-03-29T23:41:03.664Z,97.90
2023-03-29T23:43:32.468Z,97.92
2023-03-29T23:46:00.320Z,97.71
2023-03-29T23:48:27.222Z,97.94
2023-03-29T23:50:56.358Z,98.27
2023-03-29T23:53:23.171Z,98.23
2023-03-29T23:55:49.979Z,98.22
2023-03-29T23:58:16.807Z,98.38
